Flight Track Log - Related Links

Times and Time Zones

All times are in EDT time to prevent confusion due to time zone crossing. See the EJA646 flight status page for this flight to view local times or setup timezone preferences in your user account.

Time Position Orientation Groundspeed Altitude Reporting Facility
EDT Latitude Longitude Course Direction KTS MPH feet Rate Location/Type
Sun 07:45:43 PM 33.4758 -81.9164 36° Northeast 245 282 6,600  Level Jacksonville Center
Sun 07:46:43 PM 33.5422 -81.8583 36° Northeast 259 298 9,900 3,150 Climbing Jacksonville Center
Sun 07:47:43 PM 33.6064 -81.7953 39° Northeast 281 323 12,900 2,100 Climbing Jacksonville Center
Sun 07:48:43 PM 33.6325 -81.6828 74° East 313 360 14,100 1,400 Climbing Jacksonville Center
Sun 07:49:43 PM 33.6414 -81.5528 85° East 343 395 15,700 1,350 Climbing Jacksonville Center
Sun 07:50:43 PM 33.6506 -81.4181 85° East 374 430 16,800 650 Climbing Jacksonville Center
Sun 07:51:43 PM 33.6572 -81.2881 86° East 387 445 17,000 100 Climbing Jacksonville Center
Sun 07:52:43 PM 33.6678 -81.1506 85° East 403 464 17,000  Level Jacksonville Center
Sun 07:53:43 PM 33.6764 -81.0108 86° East 410 472 17,000  Level Jacksonville Center
Sun 07:54:43 PM 33.6867 -80.8708 85° East 410 472 17,000  Level Jacksonville Center
Sun 07:55:43 PM 33.6969 -80.7333 85° East 410 472 17,000  Level Jacksonville Center
Sun 07:56:43 PM 33.7047 -80.5933 86° East 416 479 17,000 -50 Level Jacksonville Center
Sun 07:57:43 PM 33.7169 -80.4531 84° East 416 479 16,900 -50 Descending Jacksonville Center
Sun 07:58:43 PM 33.7267 -80.3156 85° East 421 484 16,900  Level Jacksonville Center
Sun 07:59:43 PM 33.7342 -80.1756 86° East 421 484 16,900  Level Jacksonville Center
Sun 08:00:43 PM 33.7414 -80.0353 86° East 421 484 16,900  Level Jacksonville Center
Sun 08:01:43 PM 33.7508 -79.8978 85° East 421 484 16,900 -50 Level Jacksonville Center
Sun 08:02:43 PM 33.7558 -79.7600 87° East 421 484 16,800 -750 Descending Jacksonville Center
Sun 08:03:43 PM 33.7647 -79.6225 86° East 421 484 15,400 -2,050 Descending Jacksonville Center
Sun 08:04:43 PM 33.7719 -79.4972 86° East 399 459 12,700 -2,100 Descending Jacksonville Center
Sun 08:05:43 PM 33.7753 -79.3922 88° East 377 434 11,200 -1,050 Descending Jacksonville Center
Sun 08:06:43 PM 33.7806 -79.2769 87° East 357 411 10,600 -1,050 Descending Jacksonville Center
Sun 08:07:43 PM 33.7736 -79.1872 95° East 313 360 9,100 -2,300 Descending Jacksonville Center
Sun 08:08:43 PM 33.7567 -79.1031 104° East 272 313 6,000 -2,850 Descending Jacksonville Center
Sun 08:09:43 PM 33.7375 -79.0242 106° East 255 293 3,400 -1,550 Descending Jacksonville Center
Sun 08:10:43 PM 33.7250 -78.9572 103° East 230 265 2,900 -500 Descending Jacksonville Center
Sun 08:12:00 PM 33.7684 -78.8408 79° East  Level Estimated
Sun 08:19:00 PM 33.8000 -78.7167 North  Level FlightAware Approximate
Sun 08:20:00 PM 33.8117 -78.7239 North  Level Estimated
Sun 08:21:00 PM 33.8117 -78.7239 North  Level Estimated

Login

Don't have an account? Register now (free) for customized features, flight alerts, and more!